createdAt,value
2023-01-10T00:01:29.276Z,99203.53
2023-01-10T00:03:55.912Z,99207.16
2023-01-10T00:06:22.553Z,99204.34
2023-01-10T00:08:49.288Z,99204.16
2023-01-10T00:11:34.665Z,99221.50
2023-01-10T00:14:01.484Z,99222.53
2023-01-10T00:16:28.088Z,99231.97
2023-01-10T00:18:54.716Z,99238.75
2023-01-10T00:21:22.335Z,99242.03
2023-01-10T00:23:49.208Z,99246.00
2023-01-10T00:26:17.409Z,99246.53
2023-01-10T00:28:44.200Z,99244.28
2023-01-10T00:31:12.201Z,99256.72
2023-01-10T00:33:39.256Z,99257.50
2023-01-10T00:36:06.971Z,99256.97
2023-01-10T00:38:35.035Z,99261.28
2023-01-10T00:41:24.909Z,99269.16
2023-01-10T00:43:57.337Z,99274.41
2023-01-10T00:46:24.652Z,99271.88
2023-01-10T00:48:51.382Z,99282.56
2023-01-10T00:51:18.041Z,99279.31
2023-01-10T00:53:44.650Z,99285.72
2023-01-10T00:56:12.275Z,99283.66
2023-01-10T00:58:38.792Z,99268.63
2023-01-10T01:01:05.639Z,99268.03
2023-01-10T01:03:32.277Z,99272.19
2023-01-10T01:06:03.677Z,99289.69
2023-01-10T01:08:30.280Z,99285.97
2023-01-10T01:10:58.852Z,99287.66
2023-01-10T01:13:25.847Z,99282.03
2023-01-10T01:15:52.551Z,99277.59
2023-01-10T01:18:21.037Z,99279.81
2023-01-10T01:20:48.347Z,99287.00
2023-01-10T01:23:15.668Z,99278.25
2023-01-10T01:25:42.664Z,99272.44
2023-01-10T01:28:12.817Z,99275.66
2023-01-10T01:30:39.871Z,99272.31
2023-01-10T01:33:07.397Z,99270.84
2023-01-10T01:35:34.118Z,99266.69
2023-01-10T01:38:00.696Z,99264.84
2023-01-10T01:40:27.390Z,99268.72
2023-01-10T01:42:55.963Z,99270.13
2023-01-10T01:45:22.641Z,99272.31
2023-01-10T01:47:49.305Z,99278.81
2023-01-10T01:50:15.849Z,99275.97
2023-01-10T01:52:42.527Z,99277.91
2023-01-10T01:55:09.191Z,99287.78
2023-01-10T01:57:36.707Z,99289.97
2023-01-10T02:00:05.232Z,99292.88
2023-01-10T02:02:54.002Z,99280.50
2023-01-10T02:05:28.467Z,99278.00
2023-01-10T02:07:56.372Z,99276.06
2023-01-10T02:10:29.916Z,99278.00
2023-01-10T02:12:58.951Z,99278.25
2023-01-10T02:15:25.664Z,99268.09
2023-01-10T02:17:53.035Z,99267.38
2023-01-10T02:20:21.500Z,99267.50
2023-01-10T02:23:00.245Z,99265.69
2023-01-10T02:25:26.794Z,99267.22
2023-01-10T02:28:11.629Z,99261.03
2023-01-10T02:30:53.572Z,99256.44
2023-01-10T02:33:30.244Z,99265.63
2023-01-10T02:36:20.929Z,99275.06
2023-01-10T02:38:53.238Z,99285.78
2023-01-10T02:41:38.429Z,99289.78
2023-01-10T02:44:11.565Z,99292.22
2023-01-10T02:46:38.865Z,99307.22
2023-01-10T02:49:05.627Z,99304.28
2023-01-10T02:51:34.974Z,99301.50
2023-01-10T02:54:12.151Z,99296.22
2023-01-10T02:57:06.199Z,99283.28
2023-01-10T02:59:51.712Z,99287.44
2023-01-10T03:02:18.538Z,99275.66
2023-01-10T03:04:49.578Z,99273.50
2023-01-10T03:07:34.410Z,99275.22
2023-01-10T03:10:15.972Z,99259.06
2023-01-10T03:12:45.377Z,99257.09
2023-01-10T03:15:13.547Z,99255.69
2023-01-10T03:17:42.703Z,99256.84
2023-01-10T03:20:09.701Z,99250.34
2023-01-10T03:22:39.009Z,99244.06
2023-01-10T03:25:07.633Z,99233.22
2023-01-10T03:27:34.186Z,99232.47
2023-01-10T03:30:13.076Z,99228.19
2023-01-10T03:32:41.521Z,99228.72
2023-01-10T03:35:08.943Z,99232.78
2023-01-10T03:37:44.415Z,99239.81
2023-01-10T03:40:14.145Z,99241.88
2023-01-10T03:43:15.256Z,99239.13
2023-01-10T03:46:02.146Z,99237.78
2023-01-10T03:48:36.003Z,99231.78
2023-01-10T03:51:03.999Z,99212.06
2023-01-10T03:53:31.369Z,99207.31
2023-01-10T03:55:58.106Z,99228.78
2023-01-10T03:58:24.791Z,99225.31
2023-01-10T04:00:51.501Z,99227.00
2023-01-10T04:03:18.319Z,99226.56
2023-01-10T04:05:45.199Z,99236.47
2023-01-10T04:08:11.817Z,99236.75
2023-01-10T04:10:38.503Z,99230.91
2023-01-10T04:13:05.768Z,99231.47
2023-01-10T04:15:32.642Z,99222.28
2023-01-10T04:17:59.275Z,99227.72
2023-01-10T04:20:26.787Z,99225.63
2023-01-10T04:22:55.220Z,99219.66
2023-01-10T04:25:22.692Z,99227.31
2023-01-10T04:27:52.324Z,99220.47
2023-01-10T04:30:19.637Z,99225.63
2023-01-10T04:32:47.610Z,99220.63
2023-01-10T04:35:14.257Z,99217.00
2023-01-10T04:37:40.860Z,99215.75
2023-01-10T04:40:07.939Z,99222.56
2023-01-10T04:42:34.498Z,99215.88
2023-01-10T04:45:01.127Z,99218.78
2023-01-10T04:47:27.788Z,99221.44
2023-01-10T04:49:54.444Z,99226.19
2023-01-10T04:52:21.146Z,99224.66
2023-01-10T04:54:47.809Z,99223.41
2023-01-10T04:57:14.390Z,99234.97
2023-01-10T04:59:40.977Z,99227.88
2023-01-10T05:02:07.650Z,99216.16
2023-01-10T05:04:34.328Z,99210.03
2023-01-10T05:07:00.947Z,99223.38
2023-01-10T05:09:27.596Z,99221.72
2023-01-10T05:11:54.184Z,99217.00
2023-01-10T05:14:21.002Z,99218.53
2023-01-10T05:16:47.565Z,99215.34
2023-01-10T05:19:14.231Z,99206.97
2023-01-10T05:21:40.783Z,99210.44
2023-01-10T05:24:07.394Z,99207.53
2023-01-10T05:26:33.926Z,99207.66
2023-01-10T05:29:00.575Z,99217.56
2023-01-10T05:31:27.170Z,99212.41
2023-01-10T05:33:53.789Z,99210.31
2023-01-10T05:36:20.425Z,99209.22
2023-01-10T05:38:47.572Z,99222.56
2023-01-10T05:41:14.157Z,99209.22
2023-01-10T05:43:40.788Z,99217.28
2023-01-10T05:46:07.479Z,99215.19
2023-01-10T05:48:34.132Z,99220.63
2023-01-10T05:51:00.778Z,99201.13
2023-01-10T05:53:27.790Z,99197.22
2023-01-10T05:58:35.386Z,99187.63
2023-01-10T06:01:02.105Z,99183.84
2023-01-10T06:03:28.783Z,99196.25
2023-01-10T06:05:55.913Z,99198.31
2023-01-10T06:08:23.165Z,99187.91
2023-01-10T06:10:49.961Z,99192.75
2023-01-10T06:13:18.135Z,99186.63
2023-01-10T06:15:44.846Z,99195.81
2023-01-10T06:18:12.555Z,99192.47
2023-01-10T06:20:39.949Z,99189.81
2023-01-10T06:23:07.126Z,99189.13
2023-01-10T06:28:19.217Z,99195.41
2023-01-10T06:30:45.905Z,99178.13
2023-01-10T06:33:12.661Z,99180.78
2023-01-10T06:35:39.477Z,99194.25
2023-01-10T06:38:06.126Z,99186.63
2023-01-10T06:40:32.780Z,99189.53
2023-01-10T06:42:59.547Z,99192.44
2023-01-10T06:45:26.254Z,99182.13
2023-01-10T06:47:52.998Z,99182.13
2023-01-10T06:50:19.754Z,99171.44
2023-01-10T06:52:54.484Z,99175.19
2023-01-10T06:55:23.990Z,99159.47
2023-01-10T06:57:54.853Z,99167.00
2023-01-10T07:03:09.542Z,99160.44
2023-01-10T07:05:36.135Z,99159.63
2023-01-10T07:08:02.907Z,99156.00
2023-01-10T07:10:29.800Z,99147.78
2023-01-10T07:12:56.919Z,99156.44
2023-01-10T07:15:23.659Z,99154.19
2023-01-10T07:22:14.797Z,99154.88
2023-01-10T07:24:41.369Z,99141.81
2023-01-10T07:27:07.878Z,99142.63
2023-01-10T07:29:34.495Z,99132.88
2023-01-10T07:32:01.009Z,99116.47
2023-01-10T07:34:27.594Z,99112.28
2023-01-10T07:36:54.125Z,99113.09
2023-01-10T07:39:20.689Z,99108.06
2023-01-10T07:41:47.703Z,99109.28
2023-01-10T07:44:15.439Z,99110.16
2023-01-10T07:46:42.136Z,99103.16
2023-01-10T07:49:08.813Z,99089.25
2023-01-10T07:51:35.501Z,99090.50
2023-01-10T07:54:03.319Z,99078.25
2023-01-10T07:56:30.534Z,99082.44
2023-01-10T07:58:58.709Z,99075.19
2023-01-10T08:01:26.469Z,99067.56
2023-01-10T08:03:53.163Z,99067.84
2023-01-10T08:06:19.762Z,99063.66
2023-01-10T08:08:46.879Z,99060.31
2023-01-10T08:11:13.427Z,99054.75
2023-01-10T08:13:40.096Z,99050.72
2023-01-10T08:16:07.363Z,99050.84
2023-01-10T08:18:34.026Z,99046.56
2023-01-10T08:21:01.009Z,99041.41
2023-01-10T08:23:27.595Z,99041.97
2023-01-10T08:25:54.371Z,99028.44
2023-01-10T08:28:21.171Z,99031.19
2023-01-10T08:30:50.307Z,99033.72
2023-01-10T08:33:17.284Z,99029.25
2023-01-10T08:35:44.452Z,99030.75
2023-01-10T08:38:11.715Z,99031.31
2023-01-10T08:40:38.390Z,99025.72
2023-01-10T08:43:06.323Z,99024.19
2023-01-10T08:45:36.242Z,99009.69
2023-01-10T08:48:03.469Z,99006.28
2023-01-10T08:50:31.937Z,99007.97
2023-01-10T08:52:59.427Z,99003.78
2023-01-10T08:55:26.654Z,99007.13
2023-01-10T08:57:53.262Z,99008.94
2023-01-10T09:00:20.385Z,98994.31
2023-01-10T09:02:47.041Z,98985.66
2023-01-10T09:05:26.421Z,98988.59
2023-01-10T09:07:57.636Z,98988.75
2023-01-10T09:10:24.265Z,98976.19
2023-01-10T09:12:57.012Z,98975.06
2023-01-10T09:15:25.395Z,98968.63
2023-01-10T09:17:55.603Z,98973.50
2023-01-10T09:20:23.598Z,98977.50
2023-01-10T09:22:50.415Z,98971.53
2023-01-10T09:25:17.086Z,98955.50
2023-01-10T09:27:43.764Z,98957.31
2023-01-10T09:30:11.547Z,98940.56
2023-01-10T09:32:38.115Z,98940.44
2023-01-10T09:35:04.939Z,98935.13
2023-01-10T09:37:33.792Z,98924.56
2023-01-10T09:40:00.486Z,98922.91
2023-01-10T09:42:36.228Z,98925.38
2023-01-10T09:45:02.804Z,98925.31
2023-01-10T09:47:29.319Z,98906.66
2023-01-10T09:50:17.910Z,98899.66
2023-01-10T09:52:47.862Z,98894.09
2023-01-10T09:55:25.399Z,98890.16
2023-01-10T09:57:53.818Z,98892.63
2023-01-10T10:00:23.058Z,98886.38
2023-01-10T10:02:52.571Z,98880.22
2023-01-10T10:05:25.040Z,98864.72
2023-01-10T10:07:54.297Z,98867.50
2023-01-10T10:10:23.851Z,98851.94
2023-01-10T10:12:50.425Z,98850.78
2023-01-10T10:15:26.413Z,98838.38
2023-01-10T10:17:52.980Z,98839.88
2023-01-10T10:20:25.524Z,98837.91
2023-01-10T10:22:57.993Z,98835.44
2023-01-10T10:25:50.567Z,98825.19
2023-01-10T10:28:37.410Z,98808.28
2023-01-10T10:31:05.757Z,98799.38
2023-01-10T10:33:41.530Z,98786.47
2023-01-10T10:36:23.962Z,98773.91
2023-01-10T10:38:51.507Z,98769.00
2023-01-10T10:41:21.506Z,98762.84
2023-01-10T10:43:48.649Z,98755.28
2023-01-10T10:46:19.181Z,98742.03
2023-01-10T10:48:45.764Z,98728.19
2023-01-10T10:51:26.085Z,98730.06
2023-01-10T10:53:53.780Z,98725.28
2023-01-10T10:56:23.035Z,98717.00
2023-01-10T10:58:51.757Z,98701.94
2023-01-10T11:01:23.023Z,98694.16
2023-01-10T11:04:11.993Z,98681.41
2023-01-10T11:06:41.040Z,98668.84
2023-01-10T11:09:07.877Z,98672.13
2023-01-10T11:11:37.736Z,98664.00
2023-01-10T11:14:05.637Z,98647.13
2023-01-10T11:16:33.675Z,98617.66
2023-01-10T11:19:20.800Z,98620.97
2023-01-10T11:21:58.843Z,98621.63
2023-01-10T11:24:27.278Z,98610.03
2023-01-10T11:26:54.892Z,98597.44
2023-01-10T11:29:21.457Z,98586.22
2023-01-10T11:31:49.447Z,98593.34
2023-01-10T11:36:57.673Z,98567.66
2023-01-10T11:39:24.319Z,98560.22
2023-01-10T11:41:53.301Z,98553.06
2023-01-10T11:44:24.448Z,98549.13
2023-01-10T11:46:54.608Z,98545.47
2023-01-10T11:49:41.537Z,98530.22
2023-01-10T11:52:20.102Z,98526.25
2023-01-10T11:54:47.106Z,98518.94
2023-01-10T11:57:18.995Z,98491.47
2023-01-10T12:00:07.106Z,98470.75
2023-01-10T12:02:43.500Z,98472.72
2023-01-10T12:05:12.005Z,98454.00
2023-01-10T12:07:54.590Z,98446.84
2023-01-10T12:10:24.637Z,98443.53
2023-01-10T12:12:58.787Z,98418.53
2023-01-10T12:15:29.764Z,98424.00
2023-01-10T12:17:58.444Z,98415.03
2023-01-10T12:20:27.435Z,98393.78
2023-01-10T12:22:58.627Z,98393.63
2023-01-10T12:25:33.005Z,98384.66
2023-01-10T12:28:00.670Z,98366.09
2023-01-10T12:30:39.577Z,98364.09
2023-01-10T12:33:07.289Z,98330.28
2023-01-10T12:35:46.369Z,98328.28
2023-01-10T12:38:16.552Z,98329.97
2023-01-10T12:40:45.621Z,98306.41
2023-01-10T12:43:43.709Z,98297.47
2023-01-10T12:46:43.591Z,98291.47
2023-01-10T12:49:19.139Z,98298.25
2023-01-10T12:51:48.063Z,98285.00
2023-01-10T12:54:20.956Z,98270.72
2023-01-10T12:56:48.828Z,98276.50
2023-01-10T12:59:37.990Z,98252.94
2023-01-10T13:02:06.487Z,98243.03
2023-01-10T13:04:37.000Z,98241.38
2023-01-10T13:07:04.212Z,98230.41
2023-01-10T13:09:31.182Z,98212.66
2023-01-10T13:12:00.611Z,98188.13
2023-01-10T13:14:32.141Z,98178.16
2023-01-10T13:17:08.327Z,98161.88
2023-01-10T13:19:36.015Z,98159.06
2023-01-10T13:22:20.824Z,98155.09
2023-01-10T13:24:58.411Z,98130.03
2023-01-10T13:27:28.195Z,98140.50
2023-01-10T13:29:54.886Z,98117.63
2023-01-10T13:32:23.697Z,98106.00
2023-01-10T13:34:50.948Z,98099.69
2023-01-10T13:37:37.514Z,98085.59
2023-01-10T13:40:06.506Z,98083.13
2023-01-10T13:42:55.361Z,98072.97
2023-01-10T13:45:26.644Z,98062.00
2023-01-10T13:47:57.044Z,98059.06
2023-01-10T13:50:23.815Z,98052.56
2023-01-10T13:52:50.409Z,98053.19
2023-01-10T13:55:22.263Z,98035.28
2023-01-10T13:57:50.775Z,98022.00
2023-01-10T14:00:59.635Z,98007.75
2023-01-10T14:03:44.867Z,98007.75
2023-01-10T14:06:17.826Z,97979.19
2023-01-10T14:08:55.227Z,97963.75
2023-01-10T14:11:41.788Z,97969.22
2023-01-10T14:14:18.750Z,97936.56
2023-01-10T14:16:46.794Z,97926.38
2023-01-10T14:19:28.407Z,97911.84
2023-01-10T14:21:56.256Z,97909.47
2023-01-10T14:24:27.457Z,97895.19
2023-01-10T14:26:57.278Z,97887.84
2023-01-10T14:29:28.710Z,97884.84
2023-01-10T14:31:56.555Z,97857.94
2023-01-10T14:34:25.471Z,97852.63
2023-01-10T14:36:56.226Z,97848.75
2023-01-10T14:39:23.098Z,97843.28
2023-01-10T14:41:52.205Z,97837.97
2023-01-10T14:44:24.203Z,97828.16
2023-01-10T14:46:52.000Z,97816.91
2023-01-10T14:49:28.252Z,97815.91
2023-01-10T14:52:00.903Z,97794.47
2023-01-10T14:54:29.376Z,97793.47
2023-01-10T14:56:57.542Z,97779.19
2023-01-10T14:59:28.316Z,97772.88
2023-01-10T15:02:01.274Z,97753.25
2023-01-10T15:04:30.716Z,97737.78
2023-01-10T15:07:02.811Z,97740.25
2023-01-10T15:09:30.551Z,97718.00
2023-01-10T15:12:00.617Z,97713.09
2023-01-10T15:14:28.277Z,97707.59
2023-01-10T15:16:57.777Z,97691.84
2023-01-10T15:19:32.779Z,97681.59
2023-01-10T15:21:59.973Z,97669.56
2023-01-10T15:24:36.875Z,97657.75
2023-01-10T15:27:05.359Z,97670.41
2023-01-10T15:29:32.593Z,97648.34
2023-01-10T15:32:10.413Z,97633.25
2023-01-10T15:34:38.710Z,97626.53
2023-01-10T15:37:07.072Z,97622.88
2023-01-10T15:39:39.627Z,97614.91
2023-01-10T15:42:08.659Z,97606.75
2023-01-10T15:44:37.011Z,97586.78
2023-01-10T15:47:03.707Z,97587.41
2023-01-10T15:49:30.727Z,97566.16
2023-01-10T15:51:58.341Z,97560.63
2023-01-10T15:54:24.939Z,97530.59
2023-01-10T15:56:51.599Z,97532.84
2023-01-10T15:59:56.339Z,97530.59
2023-01-10T16:02:23.664Z,97528.75
2023-01-10T16:04:58.113Z,97522.00
2023-01-10T16:07:32.901Z,97510.00
2023-01-10T16:10:08.241Z,97500.63
2023-01-10T16:15:56.677Z,97473.88
2023-01-10T16:18:23.765Z,97474.69
2023-01-10T16:20:51.526Z,97450.38
2023-01-10T16:23:20.245Z,97445.69
2023-01-10T16:25:49.373Z,97437.72
2023-01-10T16:28:17.544Z,97425.06
2023-01-10T16:30:47.007Z,97417.09
2023-01-10T16:33:18.708Z,97404.28
2023-01-10T16:35:46.702Z,97400.19
2023-01-10T16:38:13.683Z,97399.38
2023-01-10T16:40:41.472Z,97389.38
2023-01-10T16:43:21.654Z,97370.56
2023-01-10T16:45:49.641Z,97351.16
2023-01-10T16:48:18.629Z,97336.84
2023-01-10T16:50:46.112Z,97327.88
2023-01-10T16:53:13.638Z,97330.53
2023-01-10T16:55:42.053Z,97312.53
2023-01-10T16:58:09.531Z,97297.22
2023-01-10T17:00:36.662Z,97293.75
2023-01-10T17:03:06.635Z,97291.50
2023-01-10T17:05:39.933Z,97277.19
2023-01-10T17:08:06.932Z,97271.06
2023-01-10T17:10:35.009Z,97259.41
2023-01-10T17:13:03.292Z,97252.06
2023-01-10T17:15:29.930Z,97237.53
2023-01-10T17:17:56.572Z,97250.63
2023-01-10T17:20:23.195Z,97248.78
2023-01-10T17:22:49.831Z,97241.41
2023-01-10T17:25:17.055Z,97229.78
2023-01-10T17:27:45.061Z,97220.38
2023-01-10T17:30:12.227Z,97224.03
2023-01-10T17:32:38.902Z,97207.72
2023-01-10T17:35:05.923Z,97201.34
2023-01-10T17:37:33.189Z,97173.34
2023-01-10T17:39:59.769Z,97187.25
2023-01-10T17:42:26.575Z,97177.81
2023-01-10T17:44:53.104Z,97174.13
2023-01-10T17:47:19.783Z,97160.44
2023-01-10T17:49:49.420Z,97154.69
2023-01-10T17:52:19.729Z,97151.03
2023-01-10T17:54:46.459Z,97142.81
2023-01-10T17:57:13.508Z,97137.72
2023-01-10T17:59:40.224Z,97125.06
2023-01-10T18:02:08.340Z,97123.81
2023-01-10T18:04:35.115Z,97111.94
2023-01-10T18:07:01.794Z,97107.41
2023-01-10T18:09:28.537Z,97093.72
2023-01-10T18:11:55.303Z,97094.31
2023-01-10T18:14:36.933Z,97089.81
2023-01-10T18:17:10.844Z,97090.44
2023-01-10T18:19:37.780Z,97090.22
2023-01-10T18:22:25.349Z,97075.44
2023-01-10T18:24:52.744Z,97065.66
2023-01-10T18:27:19.579Z,97065.84
2023-01-10T18:29:46.323Z,97061.94
2023-01-10T18:32:12.881Z,97049.25
2023-01-10T18:34:39.434Z,97039.44
2023-01-10T18:37:06.059Z,97048.41
2023-01-10T18:39:32.638Z,97050.63
2023-01-10T18:41:59.299Z,97049.81
2023-01-10T18:44:26.005Z,97039.72
2023-01-10T18:46:53.726Z,97032.78
2023-01-10T18:49:20.275Z,97024.59
2023-01-10T18:51:46.899Z,97022.75
2023-01-10T18:54:13.459Z,97018.03
2023-01-10T18:56:50.563Z,97022.56
2023-01-10T18:59:19.058Z,97015.72
2023-01-10T19:01:45.739Z,97001.97
2023-01-10T19:04:12.368Z,96999.91
2023-01-10T19:06:39.065Z,97003.81
2023-01-10T19:09:05.697Z,96999.47
2023-01-10T19:11:32.372Z,97004.78
2023-01-10T19:13:58.967Z,96995.78
2023-01-10T19:16:29.703Z,96999.19
2023-01-10T19:18:57.990Z,96991.22
2023-01-10T19:21:25.219Z,96987.25
2023-01-10T19:23:55.000Z,96981.03
2023-01-10T19:28:57.355Z,96999.03
2023-01-10T19:31:25.261Z,97008.25
2023-01-10T19:33:52.482Z,97008.25
2023-01-10T19:36:20.177Z,97010.63
2023-01-10T19:38:46.985Z,96977.31
2023-01-10T19:41:14.483Z,96975.75
2023-01-10T19:43:41.120Z,96990.88
2023-01-10T19:46:08.543Z,96983.19
2023-01-10T19:48:38.158Z,96974.44
2023-01-10T19:51:12.441Z,96976.88
2023-01-10T19:53:48.263Z,96981.59
2023-01-10T19:56:23.145Z,96978.56
2023-01-10T19:58:50.326Z,96988.59
2023-01-10T20:01:19.758Z,96981.72
2023-01-10T20:03:47.751Z,97016.88
2023-01-10T20:06:17.305Z,97008.66
2023-01-10T20:08:44.887Z,97012.81
2023-01-10T20:11:11.493Z,97030.84
2023-01-10T20:13:39.579Z,97040.31
2023-01-10T20:16:06.522Z,97034.34
2023-01-10T20:18:33.116Z,97010.41
2023-01-10T20:21:03.037Z,96993.66
2023-01-10T20:23:30.845Z,97003.53
2023-01-10T20:26:09.692Z,97007.81
2023-01-10T20:28:36.608Z,97009.09
2023-01-10T20:31:03.767Z,97024.66
2023-01-10T20:33:32.367Z,97020.78
2023-01-10T20:36:10.449Z,97031.81
2023-01-10T20:38:37.196Z,97026.34
2023-01-10T20:41:05.152Z,97026.13
2023-01-10T20:43:31.959Z,97030.84
2023-01-10T20:46:04.572Z,97026.75
2023-01-10T20:48:31.411Z,97037.34
2023-01-10T20:50:58.155Z,97047.56
2023-01-10T20:53:24.869Z,97052.31
2023-01-10T20:55:59.785Z,97042.09
2023-01-10T20:58:26.945Z,97030.84
2023-01-10T21:00:53.902Z,97054.34
2023-01-10T21:03:20.508Z,97047.75
2023-01-10T21:05:52.781Z,97060.88
2023-01-10T21:08:20.178Z,97070.69
2023-01-10T21:10:48.864Z,97062.63
2023-01-10T21:13:15.800Z,97067.94
2023-01-10T21:15:48.418Z,97057.47
2023-01-10T21:18:16.190Z,97066.66
2023-01-10T21:20:48.063Z,97068.91
2023-01-10T21:23:15.821Z,97088.50
2023-01-10T21:25:42.403Z,97108.56
2023-01-10T21:28:09.863Z,97098.28
2023-01-10T21:30:37.180Z,97111.78
2023-01-10T21:33:04.370Z,97125.31
2023-01-10T21:35:33.653Z,97120.81
2023-01-10T21:38:00.880Z,97128.63
2023-01-10T21:40:28.116Z,97147.00
2023-01-10T21:42:55.092Z,97163.59
2023-01-10T21:45:22.189Z,97165.63
2023-01-10T21:47:49.057Z,97175.84
2023-01-10T21:50:16.383Z,97176.44
2023-01-10T21:52:43.190Z,97175.59
2023-01-10T21:55:11.068Z,97194.81
2023-01-10T21:57:39.500Z,97189.03
2023-01-10T22:00:06.629Z,97192.69
2023-01-10T22:02:38.328Z,97196.59
2023-01-10T22:05:05.709Z,97202.91
2023-01-10T22:07:32.412Z,97201.88
2023-01-10T22:09:59.063Z,97203.34
2023-01-10T22:12:25.710Z,97212.09
2023-01-10T22:14:52.387Z,97207.81
2023-01-10T22:17:19.031Z,97223.13
2023-01-10T22:19:45.653Z,97235.44
2023-01-10T22:22:12.353Z,97250.19
2023-01-10T22:24:40.986Z,97250.41
2023-01-10T22:27:08.510Z,97254.28
2023-01-10T22:29:35.152Z,97252.44
2023-01-10T22:32:01.723Z,97254.47
2023-01-10T22:34:28.390Z,97253.28
2023-01-10T22:36:55.072Z,97261.28
2023-01-10T22:39:21.775Z,97273.56
2023-01-10T22:41:48.319Z,97291.00
2023-01-10T22:44:19.326Z,97307.56
2023-01-10T22:46:46.378Z,97312.72
2023-01-10T22:49:13.077Z,97320.91
2023-01-10T22:51:39.701Z,97323.38
2023-01-10T22:54:06.299Z,97329.53
2023-01-10T22:56:33.299Z,97343.81
2023-01-10T22:58:59.934Z,97335.66
2023-01-10T23:01:26.584Z,97339.13
2023-01-10T23:03:53.193Z,97348.72
2023-01-10T23:06:20.395Z,97348.34
2023-01-10T23:08:47.255Z,97355.28
2023-01-10T23:11:15.121Z,97357.75
2023-01-10T23:13:41.689Z,97371.03
2023-01-10T23:16:12.143Z,97365.91
2023-01-10T23:18:38.872Z,97382.28
2023-01-10T23:21:05.737Z,97398.84
2023-01-10T23:23:32.481Z,97395.34
2023-01-10T23:26:03.888Z,97392.31
2023-01-10T23:28:31.625Z,97388.00
2023-01-10T23:30:58.505Z,97414.00
2023-01-10T23:33:25.275Z,97421.31
2023-01-10T23:35:52.148Z,97426.44
2023-01-10T23:38:18.807Z,97422.97
2023-01-10T23:40:48.401Z,97421.56
2023-01-10T23:43:15.188Z,97423.19
2023-01-10T23:45:44.874Z,97437.69
2023-01-10T23:48:12.300Z,97434.41
2023-01-10T23:50:38.981Z,97437.28
2023-01-10T23:53:05.746Z,97455.50
2023-01-10T23:55:33.071Z,97471.81
2023-01-10T23:57:59.711Z,97483.03
